createdAt,value
2022-07-28T00:01:42.995Z,100655.44
2022-07-28T00:04:11.881Z,100654.47
2022-07-28T00:06:40.902Z,100652.81
2022-07-28T00:09:10.088Z,100655.94
2022-07-28T00:11:51.995Z,100661.94
2022-07-28T00:14:24.221Z,100659.31
2022-07-28T00:16:54.299Z,100656.19
2022-07-28T00:19:23.049Z,100662.06
2022-07-28T00:21:51.792Z,100669.41
2022-07-28T00:24:20.408Z,100664.50
2022-07-28T00:26:48.985Z,100670.84
2022-07-28T00:29:17.836Z,100670.31
2022-07-28T00:31:46.411Z,100665.13
2022-07-28T00:34:16.866Z,100665.66
2022-07-28T00:36:45.972Z,100666.34
2022-07-28T00:39:15.053Z,100677.06
2022-07-28T00:41:43.806Z,100666.38
2022-07-28T00:44:13.000Z,100673.03
2022-07-28T00:46:41.797Z,100674.84
2022-07-28T00:49:10.622Z,100670.13
2022-07-28T00:51:41.823Z,100674.78
2022-07-28T00:54:11.002Z,100677.44
2022-07-28T00:56:40.095Z,100677.00
2022-07-28T00:59:08.682Z,100681.09
2022-07-28T01:01:37.600Z,100681.91
2022-07-28T01:04:07.274Z,100679.84
2022-07-28T01:07:01.253Z,100685.03
2022-07-28T01:09:54.105Z,100673.94
2022-07-28T01:12:42.038Z,100683.53
2022-07-28T01:15:23.774Z,100679.44
2022-07-28T01:18:03.750Z,100678.81
2022-07-28T01:20:40.613Z,100684.09
2022-07-28T01:23:51.151Z,100684.53
2022-07-28T01:26:55.666Z,100678.22
2022-07-28T01:29:51.214Z,100681.00
2022-07-28T01:32:26.167Z,100678.97
2022-07-28T01:35:01.766Z,100678.03
2022-07-28T01:37:37.548Z,100677.97
2022-07-28T01:40:12.069Z,100677.75
2022-07-28T01:42:48.158Z,100675.16
2022-07-28T01:45:19.156Z,100680.69
2022-07-28T01:47:54.242Z,100674.25
2022-07-28T01:50:27.448Z,100673.72
2022-07-28T01:52:59.167Z,100672.75
2022-07-28T01:55:29.882Z,100684.34
2022-07-28T01:57:59.115Z,100682.66
2022-07-28T02:00:29.172Z,100683.63
2022-07-28T02:03:03.801Z,100690.03
2022-07-28T02:05:34.740Z,100682.97
2022-07-28T02:08:07.290Z,100686.25
2022-07-28T02:10:38.187Z,100683.81
2022-07-28T02:13:08.115Z,100685.50
2022-07-28T02:15:40.331Z,100687.72
2022-07-28T02:18:12.523Z,100683.31
2022-07-28T02:20:42.584Z,100675.75
2022-07-28T02:23:15.592Z,100682.28
2022-07-28T02:25:45.427Z,100684.81
2022-07-28T02:28:17.062Z,100686.47
2022-07-28T02:30:56.964Z,100686.25
2022-07-28T02:33:59.885Z,100691.75
2022-07-28T02:36:27.975Z,100693.22
2022-07-28T02:39:04.423Z,100690.28
2022-07-28T02:41:40.565Z,100682.09
2022-07-28T02:44:15.975Z,100674.59
2022-07-28T02:46:49.214Z,100680.28
2022-07-28T02:49:26.512Z,100686.84
2022-07-28T02:51:59.235Z,100688.06
2022-07-28T02:54:29.889Z,100690.19
2022-07-28T02:57:01.155Z,100690.50
2022-07-28T02:59:31.309Z,100702.09
2022-07-28T03:02:01.258Z,100700.75
2022-07-28T03:04:49.812Z,100694.06
2022-07-28T03:07:19.313Z,100695.88
2022-07-28T03:09:49.645Z,100701.78
2022-07-28T03:12:18.918Z,100693.38
2022-07-28T03:14:47.829Z,100708.75
2022-07-28T03:17:17.710Z,100706.13
2022-07-28T03:19:47.947Z,100713.91
2022-07-28T03:22:16.840Z,100718.03
2022-07-28T03:24:50.907Z,100718.44
2022-07-28T03:27:25.839Z,100723.41
2022-07-28T03:30:03.811Z,100722.00
2022-07-28T03:32:36.344Z,100724.75
2022-07-28T03:35:08.302Z,100729.38
2022-07-28T03:37:53.896Z,100727.47
2022-07-28T03:40:26.121Z,100727.38
2022-07-28T03:42:56.997Z,100727.41
2022-07-28T03:45:27.422Z,100732.19
2022-07-28T03:47:58.096Z,100734.69
2022-07-28T03:50:31.612Z,100739.56
2022-07-28T03:53:03.879Z,100738.91
2022-07-28T03:55:32.458Z,100742.31
2022-07-28T03:58:01.573Z,100746.50
2022-07-28T04:00:30.384Z,100748.00
2022-07-28T04:02:58.997Z,100750.81
2022-07-28T04:05:29.303Z,100743.22
2022-07-28T04:07:57.847Z,100754.28
2022-07-28T04:10:26.605Z,100755.88
2022-07-28T04:12:57.605Z,100759.47
2022-07-28T04:15:28.199Z,100761.88
2022-07-28T04:17:58.117Z,100767.34
2022-07-28T04:20:29.523Z,100766.50
2022-07-28T04:22:58.490Z,100761.19
2022-07-28T04:25:28.934Z,100766.06
2022-07-28T04:27:57.686Z,100768.03
2022-07-28T04:30:28.002Z,100776.25
2022-07-28T04:32:57.179Z,100780.22
2022-07-28T04:35:27.344Z,100773.91
2022-07-28T04:37:58.656Z,100768.22
2022-07-28T04:40:28.767Z,100770.69
2022-07-28T04:42:57.938Z,100777.16
2022-07-28T04:45:26.683Z,100767.31
2022-07-28T04:47:55.285Z,100770.00
2022-07-28T04:50:24.092Z,100771.44
2022-07-28T04:53:00.713Z,100768.97
2022-07-28T04:55:29.714Z,100766.59
2022-07-28T04:57:58.245Z,100769.84
2022-07-28T05:00:27.611Z,100776.69
2022-07-28T05:02:58.457Z,100774.66
2022-07-28T05:05:27.269Z,100772.50
2022-07-28T05:07:55.928Z,100779.47
2022-07-28T05:10:26.219Z,100777.78
2022-07-28T05:12:54.852Z,100780.28
2022-07-28T05:15:23.461Z,100779.81
2022-07-28T05:17:52.220Z,100779.78
2022-07-28T05:20:20.898Z,100775.63
2022-07-28T05:22:53.636Z,100777.97
2022-07-28T05:25:25.514Z,100779.63
2022-07-28T05:27:55.792Z,100785.41
2022-07-28T05:30:24.730Z,100782.53
2022-07-28T05:32:59.252Z,100781.56
2022-07-28T05:35:28.361Z,100784.63
2022-07-28T05:37:56.945Z,100789.47
2022-07-28T05:40:27.277Z,100787.66
2022-07-28T05:42:56.083Z,100789.03
2022-07-28T05:45:25.003Z,100783.09
2022-07-28T05:47:54.785Z,100784.66
2022-07-28T05:50:25.295Z,100782.81
2022-07-28T05:52:54.227Z,100799.34
2022-07-28T05:55:22.820Z,100795.06
2022-07-28T05:57:54.200Z,100798.44
2022-07-28T06:00:24.827Z,100805.50
2022-07-28T06:02:54.062Z,100805.66
2022-07-28T06:05:24.467Z,100807.41
2022-07-28T06:07:53.191Z,100813.41
2022-07-28T06:10:24.680Z,100807.22
2022-07-28T06:12:57.889Z,100810.03
2022-07-28T06:15:28.405Z,100813.28
2022-07-28T06:17:57.272Z,100808.19
2022-07-28T06:20:27.864Z,100808.56
2022-07-28T06:22:57.542Z,100818.75
2022-07-28T06:25:29.083Z,100819.09
2022-07-28T06:28:00.958Z,100815.88
2022-07-28T06:30:30.772Z,100817.09
2022-07-28T06:33:00.613Z,100820.38
2022-07-28T06:35:29.244Z,100813.44
2022-07-28T06:37:58.018Z,100818.75
2022-07-28T06:40:26.703Z,100822.59
2022-07-28T06:42:55.435Z,100823.69
2022-07-28T06:45:25.746Z,100825.19
2022-07-28T06:47:55.141Z,100830.72
2022-07-28T06:50:25.196Z,100831.69
2022-07-28T06:52:56.392Z,100833.50
2022-07-28T06:55:25.169Z,100830.31
2022-07-28T06:57:54.406Z,100830.88
2022-07-28T07:00:23.319Z,100837.91
2022-07-28T07:02:53.366Z,100840.16
2022-07-28T07:05:21.952Z,100841.00
2022-07-28T07:07:50.777Z,100829.84
2022-07-28T07:10:19.346Z,100830.88
2022-07-28T07:12:47.933Z,100838.88
2022-07-28T07:15:16.788Z,100841.88
2022-07-28T07:17:45.340Z,100840.94
2022-07-28T07:20:17.233Z,100834.59
2022-07-28T07:22:48.998Z,100836.59
2022-07-28T07:25:19.933Z,100849.66
2022-07-28T07:27:48.958Z,100842.22
2022-07-28T07:30:18.435Z,100841.03
2022-07-28T07:32:47.054Z,100847.91
2022-07-28T07:35:17.153Z,100856.66
2022-07-28T07:37:45.790Z,100841.19
2022-07-28T07:40:14.400Z,100849.72
2022-07-28T07:42:43.216Z,100852.56
2022-07-28T07:45:12.303Z,100855.66
2022-07-28T07:47:40.998Z,100849.03
2022-07-28T07:50:10.878Z,100847.63
2022-07-28T07:52:40.843Z,100860.31
2022-07-28T07:55:10.905Z,100858.31
2022-07-28T07:57:39.717Z,100854.06
2022-07-28T08:00:28.558Z,100853.09
2022-07-28T08:02:58.532Z,100856.75
2022-07-28T08:05:34.822Z,100859.13
2022-07-28T08:08:07.172Z,100861.47
2022-07-28T08:10:36.148Z,100872.56
2022-07-28T08:13:06.375Z,100862.16
2022-07-28T08:15:35.978Z,100857.53
2022-07-28T08:18:05.266Z,100861.78
2022-07-28T08:20:34.098Z,100859.81
2022-07-28T08:23:02.884Z,100858.28
2022-07-28T08:25:35.818Z,100855.50
2022-07-28T08:28:05.261Z,100860.88
2022-07-28T08:30:33.997Z,100860.47
2022-07-28T08:33:03.428Z,100863.28
2022-07-28T08:35:34.769Z,100864.91
2022-07-28T08:38:05.575Z,100860.84
2022-07-28T08:40:39.491Z,100857.00
2022-07-28T08:43:21.036Z,100862.88
2022-07-28T08:45:57.763Z,100861.09
2022-07-28T08:48:31.543Z,100854.50
2022-07-28T08:51:05.513Z,100867.34
2022-07-28T08:53:37.757Z,100870.28
2022-07-28T08:56:10.595Z,100863.81
2022-07-28T08:58:39.755Z,100861.81
2022-07-28T09:01:11.064Z,100864.38
2022-07-28T09:03:40.514Z,100865.63
2022-07-28T09:06:09.515Z,100864.81
2022-07-28T09:08:38.430Z,100865.31
2022-07-28T09:11:08.411Z,100874.75
2022-07-28T09:13:38.360Z,100867.63
2022-07-28T09:16:07.803Z,100875.31
2022-07-28T09:18:36.833Z,100874.97
2022-07-28T09:21:06.237Z,100871.31
2022-07-28T09:23:46.189Z,100875.22
2022-07-28T09:26:17.265Z,100861.78
2022-07-28T09:28:53.131Z,100871.78
2022-07-28T09:31:23.791Z,100868.25
2022-07-28T09:33:58.507Z,100870.53
2022-07-28T09:36:27.251Z,100865.03
2022-07-28T09:38:56.738Z,100874.75
2022-07-28T09:41:26.685Z,100868.94
2022-07-28T09:43:55.965Z,100863.28
2022-07-28T09:46:29.477Z,100861.84
2022-07-28T09:49:01.186Z,100861.72
2022-07-28T09:51:32.093Z,100862.22
2022-07-28T09:54:10.972Z,100867.84
2022-07-28T09:56:45.915Z,100868.91
2022-07-28T09:59:16.985Z,100868.25
2022-07-28T10:01:56.536Z,100858.34
2022-07-28T10:04:34.144Z,100862.78
2022-07-28T10:07:06.803Z,100864.81
2022-07-28T10:09:35.623Z,100864.50
2022-07-28T10:12:18.467Z,100867.50
2022-07-28T10:14:47.619Z,100858.66
2022-07-28T10:17:29.454Z,100862.78
2022-07-28T10:19:59.700Z,100864.34
2022-07-28T10:22:33.414Z,100856.94
2022-07-28T10:25:06.819Z,100857.34
2022-07-28T10:27:37.759Z,100856.09
2022-07-28T10:30:08.229Z,100852.16
2022-07-28T10:32:42.977Z,100847.38
2022-07-28T10:35:14.749Z,100850.69
2022-07-28T10:37:52.534Z,100841.00
2022-07-28T10:40:29.851Z,100847.53
2022-07-28T10:43:01.446Z,100839.63
2022-07-28T10:45:55.070Z,100841.63
2022-07-28T10:48:23.982Z,100841.72
2022-07-28T10:50:54.699Z,100837.59
2022-07-28T10:53:37.285Z,100840.97
2022-07-28T10:56:16.724Z,100848.28
2022-07-28T10:59:04.742Z,100832.97
2022-07-28T11:01:53.865Z,100838.06
2022-07-28T11:04:59.169Z,100837.38
2022-07-28T11:07:40.619Z,100839.38
2022-07-28T11:10:20.538Z,100840.03
2022-07-28T11:12:51.360Z,100830.06
2022-07-28T11:15:33.714Z,100827.03
2022-07-28T11:18:07.467Z,100838.59
2022-07-28T11:21:10.266Z,100826.41
2022-07-28T11:23:54.690Z,100821.84
2022-07-28T11:26:36.487Z,100823.38
2022-07-28T11:29:25.880Z,100824.22
2022-07-28T11:32:06.597Z,100821.44
2022-07-28T11:35:08.627Z,100819.50
2022-07-28T11:38:14.544Z,100818.56
2022-07-28T11:40:45.546Z,100815.50
2022-07-28T11:43:36.775Z,100818.75
2022-07-28T11:46:38.453Z,100815.41
2022-07-28T11:49:28.630Z,100816.50
2022-07-28T11:52:22.592Z,100805.19
2022-07-28T11:54:58.063Z,100812.53
2022-07-28T11:57:29.040Z,100807.63
2022-07-28T12:00:01.184Z,100807.97
2022-07-28T12:02:33.260Z,100792.03
2022-07-28T12:05:12.037Z,100791.00
2022-07-28T12:07:45.591Z,100791.06
2022-07-28T12:10:53.952Z,100783.69
2022-07-28T12:13:28.754Z,100793.31
2022-07-28T12:15:57.911Z,100786.09
2022-07-28T12:18:26.730Z,100793.16
2022-07-28T12:20:58.559Z,100781.38
2022-07-28T12:23:39.396Z,100791.97
2022-07-28T12:26:31.668Z,100788.03
2022-07-28T12:29:01.843Z,100792.91
2022-07-28T12:31:33.856Z,100790.09
2022-07-28T12:34:06.238Z,100792.31
2022-07-28T12:36:37.640Z,100786.72
2022-07-28T12:39:12.738Z,100785.38
2022-07-28T12:41:41.634Z,100782.38
2022-07-28T12:44:12.176Z,100783.50
2022-07-28T12:46:48.855Z,100789.59
2022-07-28T12:49:23.945Z,100780.72
2022-07-28T12:51:54.119Z,100779.16
2022-07-28T12:54:37.149Z,100776.19
2022-07-28T12:57:06.594Z,100787.22
2022-07-28T12:59:38.735Z,100783.13
2022-07-28T13:02:09.323Z,100787.13
2022-07-28T13:04:46.482Z,100793.63
2022-07-28T13:07:26.010Z,100781.34
2022-07-28T13:10:05.313Z,100781.84
2022-07-28T13:12:34.976Z,100783.13
2022-07-28T13:15:07.001Z,100787.34
2022-07-28T13:17:51.810Z,100787.03
2022-07-28T13:20:22.321Z,100792.22
2022-07-28T13:22:53.480Z,100783.97
2022-07-28T13:25:22.887Z,100779.16
2022-07-28T13:27:55.715Z,100777.97
2022-07-28T13:30:24.830Z,100774.72
2022-07-28T13:32:54.821Z,100774.81
2022-07-28T13:35:23.657Z,100773.13
2022-07-28T13:37:53.762Z,100778.50
2022-07-28T13:40:22.789Z,100777.09
2022-07-28T13:42:53.296Z,100785.28
2022-07-28T13:45:26.178Z,100783.88
2022-07-28T13:47:59.001Z,100781.28
2022-07-28T13:50:28.053Z,100788.28
2022-07-28T13:52:58.603Z,100784.53
2022-07-28T13:55:27.522Z,100781.94
2022-07-28T13:57:56.709Z,100776.00
2022-07-28T14:00:25.860Z,100780.50
2022-07-28T14:02:54.536Z,100786.06
2022-07-28T14:05:23.377Z,100789.41
2022-07-28T14:07:52.111Z,100789.47
2022-07-28T14:10:26.725Z,100791.91
2022-07-28T14:12:56.442Z,100788.44
2022-07-28T14:15:25.077Z,100789.97
2022-07-28T14:17:53.814Z,100788.97
2022-07-28T14:20:22.614Z,100788.88
2022-07-28T14:22:52.443Z,100788.03
2022-07-28T14:25:22.529Z,100778.31
2022-07-28T14:27:54.620Z,100787.97
2022-07-28T14:30:26.858Z,100785.19
2022-07-28T14:32:58.113Z,100789.91
2022-07-28T14:35:26.760Z,100783.78
2022-07-28T14:38:41.901Z,100788.78
2022-07-28T14:40:45.682Z,100791.78
2022-07-28T14:56:38.608Z,100795.06
2022-07-28T14:59:07.428Z,100791.47
2022-07-28T15:01:36.607Z,100795.38
2022-07-28T15:04:06.462Z,100792.09
2022-07-28T15:06:35.249Z,100787.69
2022-07-28T15:09:04.264Z,100783.13
2022-07-28T15:11:32.915Z,100787.22
2022-07-28T15:14:03.545Z,100790.31
2022-07-28T15:16:32.398Z,100786.28
2022-07-28T15:19:01.031Z,100787.88
2022-07-28T15:21:34.383Z,100785.09
2022-07-28T15:24:07.524Z,100783.88
2022-07-28T15:26:36.747Z,100783.59
2022-07-28T15:29:07.124Z,100788.16
2022-07-28T15:31:37.777Z,100783.69
2022-07-28T15:34:08.624Z,100779.00
2022-07-28T15:36:39.172Z,100785.13
2022-07-28T15:39:09.267Z,100777.84
2022-07-28T15:41:38.108Z,100771.22
2022-07-28T15:44:09.760Z,100788.53
2022-07-28T15:46:39.188Z,100779.34
2022-07-28T15:49:09.919Z,100785.09
2022-07-28T15:51:39.688Z,100779.66
2022-07-28T15:54:08.548Z,100784.31
2022-07-28T15:56:38.276Z,100778.41
2022-07-28T15:59:09.298Z,100781.53
2022-07-28T16:01:45.161Z,100782.16
2022-07-28T16:04:14.365Z,100778.06
2022-07-28T16:07:00.974Z,100782.13
2022-07-28T16:09:45.683Z,100782.25
2022-07-28T16:12:15.799Z,100789.38
2022-07-28T16:14:45.911Z,100790.72
2022-07-28T16:17:14.605Z,100788.75
2022-07-28T16:19:49.647Z,100793.03
2022-07-28T16:22:20.501Z,100784.63
2022-07-28T16:24:50.823Z,100786.44
2022-07-28T16:27:19.710Z,100783.28
2022-07-28T16:29:50.351Z,100785.00
2022-07-28T16:32:19.166Z,100784.13
2022-07-28T16:34:49.186Z,100780.88
2022-07-28T16:37:19.719Z,100777.38
2022-07-28T16:39:49.622Z,100779.06
2022-07-28T16:42:18.442Z,100780.38
2022-07-28T16:44:48.817Z,100779.28
2022-07-28T16:47:17.981Z,100774.44
2022-07-28T16:49:46.969Z,100776.75
2022-07-28T16:52:16.411Z,100774.72
2022-07-28T16:54:45.812Z,100776.84
2022-07-28T16:57:16.997Z,100775.06
2022-07-28T16:59:48.946Z,100777.59
2022-07-28T17:02:20.266Z,100779.88
2022-07-28T17:04:49.506Z,100774.72
2022-07-28T17:07:18.638Z,100779.41
2022-07-28T17:09:47.652Z,100780.38
2022-07-28T17:12:16.944Z,100787.41
2022-07-28T17:14:45.979Z,100782.94
2022-07-28T17:17:14.961Z,100790.91
2022-07-28T17:19:47.736Z,100785.09
2022-07-28T17:22:16.799Z,100788.50
2022-07-28T17:24:48.193Z,100795.41
2022-07-28T17:27:37.987Z,100789.59
2022-07-28T17:30:07.166Z,100790.38
2022-07-28T17:32:36.116Z,100794.41
2022-07-28T17:35:08.238Z,100794.72
2022-07-28T17:37:58.254Z,100799.69
2022-07-28T17:40:27.698Z,100800.53
2022-07-28T17:42:56.964Z,100795.97
2022-07-28T17:45:26.415Z,100798.28
2022-07-28T17:47:55.383Z,100798.38
2022-07-28T17:50:25.798Z,100799.53
2022-07-28T17:52:55.034Z,100802.97
2022-07-28T17:55:57.533Z,100805.44
2022-07-28T17:58:29.156Z,100805.03
2022-07-28T18:01:10.441Z,100805.84
2022-07-28T18:03:59.304Z,100807.81
2022-07-28T18:06:36.720Z,100800.72
2022-07-28T18:09:08.224Z,100808.16
2022-07-28T18:11:57.405Z,100814.41
2022-07-28T18:14:28.843Z,100818.84
2022-07-28T18:16:58.280Z,100816.97
2022-07-28T18:19:27.923Z,100826.03
2022-07-28T18:21:58.597Z,100819.09
2022-07-28T18:24:27.560Z,100818.63
2022-07-28T18:26:58.319Z,100822.38
2022-07-28T18:29:38.010Z,100821.59
2022-07-28T18:32:09.898Z,100822.47
2022-07-28T18:34:40.439Z,100822.53
2022-07-28T18:37:11.064Z,100833.09
2022-07-28T18:39:40.363Z,100834.09
2022-07-28T18:42:09.436Z,100836.69
2022-07-28T18:44:38.766Z,100834.88
2022-07-28T18:47:10.584Z,100837.44
2022-07-28T18:49:39.806Z,100832.84
2022-07-28T18:52:10.114Z,100836.22
2022-07-28T18:54:39.069Z,100844.25
2022-07-28T18:57:08.269Z,100842.16
2022-07-28T18:59:43.218Z,100837.38
2022-07-28T19:02:15.087Z,100836.25
2022-07-28T19:04:44.362Z,100840.19
2022-07-28T19:07:16.131Z,100844.28
2022-07-28T19:09:45.542Z,100838.25
2022-07-28T19:12:15.140Z,100842.44
2022-07-28T19:14:44.093Z,100843.03
2022-07-28T19:17:13.205Z,100846.09
2022-07-28T19:19:42.170Z,100844.16
2022-07-28T19:22:11.157Z,100842.88
2022-07-28T19:24:41.660Z,100843.88
2022-07-28T19:27:11.719Z,100838.00
2022-07-28T19:29:40.933Z,100838.25
2022-07-28T19:32:09.869Z,100841.34
2022-07-28T19:34:38.901Z,100843.00
2022-07-28T19:37:08.082Z,100847.19
2022-07-28T19:39:47.197Z,100846.91
2022-07-28T19:42:16.386Z,100842.09
2022-07-28T19:44:45.887Z,100849.19
2022-07-28T19:47:14.901Z,100848.06
2022-07-28T19:49:44.112Z,100848.47
2022-07-28T19:52:13.130Z,100848.28
2022-07-28T19:54:42.097Z,100841.69
2022-07-28T19:57:12.672Z,100845.34
2022-07-28T19:59:43.593Z,100849.63
2022-07-28T20:02:14.337Z,100851.00
2022-07-28T20:04:43.814Z,100852.50
2022-07-28T20:07:12.928Z,100846.63
2022-07-28T20:09:41.866Z,100855.81
2022-07-28T20:12:12.207Z,100849.94
2022-07-28T20:14:41.378Z,100850.06
2022-07-28T20:17:16.344Z,100851.31
2022-07-28T20:19:58.878Z,100857.66
2022-07-28T20:22:27.812Z,100853.84
2022-07-28T20:24:56.793Z,100864.25
2022-07-28T20:27:27.345Z,100865.22
2022-07-28T20:29:56.287Z,100865.38
2022-07-28T20:32:25.305Z,100864.66
2022-07-28T20:34:56.685Z,100866.97
2022-07-28T20:37:36.958Z,100860.34
2022-07-28T20:40:09.381Z,100872.09
2022-07-28T20:42:39.799Z,100866.66
2022-07-28T20:45:09.671Z,100868.84
2022-07-28T20:47:38.643Z,100873.41
2022-07-28T20:50:08.607Z,100878.72
2022-07-28T20:52:37.767Z,100877.06
2022-07-28T20:55:07.408Z,100876.47
2022-07-28T20:57:36.374Z,100878.53
2022-07-28T21:00:08.992Z,100881.31
2022-07-28T21:02:38.894Z,100883.41
2022-07-28T21:05:09.104Z,100888.94
2022-07-28T21:08:04.899Z,100891.31
2022-07-28T21:10:36.124Z,100899.03
2022-07-28T21:13:05.481Z,100892.81
2022-07-28T21:15:35.757Z,100903.06
2022-07-28T21:18:05.169Z,100907.38
2022-07-28T21:20:34.187Z,100910.53
2022-07-28T21:23:03.294Z,100904.75
2022-07-28T21:25:32.701Z,100911.16
2022-07-28T21:28:19.298Z,100918.13
2022-07-28T21:30:49.768Z,100915.00
2022-07-28T21:33:22.731Z,100913.53
2022-07-28T21:35:52.371Z,100918.00
2022-07-28T21:38:21.889Z,100922.47
2022-07-28T21:40:50.816Z,100917.06
2022-07-28T21:43:19.975Z,100917.94
2022-07-28T21:45:50.325Z,100919.13
2022-07-28T21:48:23.344Z,100916.28
2022-07-28T21:50:53.004Z,100919.38
2022-07-28T21:53:22.402Z,100924.28
2022-07-28T21:55:52.771Z,100920.34
2022-07-28T21:58:22.309Z,100931.16
2022-07-28T22:00:52.652Z,100933.31
2022-07-28T22:03:21.619Z,100931.75
2022-07-28T22:05:50.726Z,100937.31
2022-07-28T22:08:19.701Z,100939.94
2022-07-28T22:10:48.327Z,100939.09
2022-07-28T22:13:18.724Z,100936.66
2022-07-28T22:15:47.417Z,100941.25
2022-07-28T22:18:17.712Z,100935.34
2022-07-28T22:20:46.786Z,100932.69
2022-07-28T22:23:18.629Z,100934.50
2022-07-28T22:25:58.346Z,100929.81
2022-07-28T22:28:29.518Z,100937.06
2022-07-28T22:31:09.311Z,100941.25
2022-07-28T22:33:43.543Z,100941.00
2022-07-28T22:36:12.652Z,100943.28
2022-07-28T22:38:41.286Z,100940.03
2022-07-28T22:41:10.595Z,100947.16
2022-07-28T22:43:39.446Z,100952.47
2022-07-28T22:46:10.546Z,100957.91
2022-07-28T22:48:39.565Z,100958.56
2022-07-28T22:51:13.401Z,100968.94
2022-07-28T22:54:00.581Z,100964.03
2022-07-28T22:59:17.702Z,100963.31
2022-07-28T23:01:46.727Z,100966.38
2022-07-28T23:04:15.803Z,100967.31
2022-07-28T23:06:46.610Z,100971.50
2022-07-28T23:09:15.478Z,100969.81
2022-07-28T23:11:55.542Z,100972.56
2022-07-28T23:14:25.041Z,100970.41
2022-07-28T23:16:53.741Z,100967.34
2022-07-28T23:19:22.441Z,100969.38
2022-07-28T23:21:52.797Z,100973.72
2022-07-28T23:24:21.405Z,100971.22
2022-07-28T23:26:50.237Z,100977.34
2022-07-28T23:29:19.096Z,100973.59
2022-07-28T23:31:47.808Z,100974.09
2022-07-28T23:34:16.801Z,100976.41
2022-07-28T23:36:47.707Z,100971.38
2022-07-28T23:39:17.733Z,100969.16
2022-07-28T23:41:47.821Z,100971.66
2022-07-28T23:44:16.773Z,100980.63
2022-07-28T23:46:45.606Z,100972.97
2022-07-28T23:49:15.772Z,100982.56
2022-07-28T23:51:47.693Z,100982.91
2022-07-28T23:54:19.321Z,100977.22
2022-07-28T23:56:52.031Z,100980.09
2022-07-28T23:59:20.856Z,100971.44
